sensor_id;sensor_type;location;lat;lon;timestamp;temperature;humidity
19552;DHT22;9921;47.186;9.778;2022-07-17T00:01:23;18.90;99.90
19552;DHT22;9921;47.186;9.778;2022-07-17T00:03:50;18.80;99.90
19552;DHT22;9921;47.186;9.778;2022-07-17T00:06:17;18.70;99.90
19552;DHT22;9921;47.186;9.778;2022-07-17T00:08:44;18.80;99.90
19552;DHT22;9921;47.186;9.778;2022-07-17T00:11:11;18.80;99.90
19552;DHT22;9921;47.186;9.778;2022-07-17T00:13:39;18.80;99.90
19552;DHT22;9921;47.186;9.778;2022-07-17T00:16:07;18.90;99.90
19552;DHT22;9921;47.186;9.778;2022-07-17T00:18:34;19.00;99.90
19552;DHT22;9921;47.186;9.778;2022-07-17T00:21:01;19.00;99.90
19552;DHT22;9921;47.186;9.778;2022-07-17T00:23:28;18.80;99.90
19552;DHT22;9921;47.186;9.778;2022-07-17T00:25:54;18.70;99.90
19552;DHT22;9921;47.186;9.778;2022-07-17T00:28:21;18.70;99.90
19552;DHT22;9921;47.186;9.778;2022-07-17T00:30:50;18.80;99.90
19552;DHT22;9921;47.186;9.778;2022-07-17T00:33:16;18.70;99.90
19552;DHT22;9921;47.186;9.778;2022-07-17T00:35:43;18.70;99.90
19552;DHT22;9921;47.186;9.778;2022-07-17T00:38:10;18.50;99.90
19552;DHT22;9921;47.186;9.778;2022-07-17T00:40:39;18.60;99.90
19552;DHT22;9921;47.186;9.778;2022-07-17T00:43:06;18.70;99.90
19552;DHT22;9921;47.186;9.778;2022-07-17T00:45:33;18.80;99.90
19552;DHT22;9921;47.186;9.778;2022-07-17T00:48:04;18.70;99.90
19552;DHT22;9921;47.186;9.778;2022-07-17T00:50:33;18.70;99.90
19552;DHT22;9921;47.186;9.778;2022-07-17T00:53:01;18.30;99.90
19552;DHT22;9921;47.186;9.778;2022-07-17T00:55:28;18.20;99.90
19552;DHT22;9921;47.186;9.778;2022-07-17T00:57:56;18.10;99.90
19552;DHT22;9921;47.186;9.778;2022-07-17T01:00:24;18.20;99.90
19552;DHT22;9921;47.186;9.778;2022-07-17T01:02:52;18.20;99.90
19552;DHT22;9921;47.186;9.778;2022-07-17T01:05:22;18.30;99.90
19552;DHT22;9921;47.186;9.778;2022-07-17T01:07:49;18.30;99.90
19552;DHT22;9921;47.186;9.778;2022-07-17T01:10:17;18.40;99.90
19552;DHT22;9921;47.186;9.778;2022-07-17T01:12:45;18.40;99.90
19552;DHT22;9921;47.186;9.778;2022-07-17T01:15:13;18.30;99.90
19552;DHT22;9921;47.186;9.778;2022-07-17T01:17:41;17.60;99.90
19552;DHT22;9921;47.186;9.778;2022-07-17T01:20:09;17.60;99.90
19552;DHT22;9921;47.186;9.778;2022-07-17T01:22:42;17.70;99.90
19552;DHT22;9921;47.186;9.778;2022-07-17T01:25:09;17.80;99.90
19552;DHT22;9921;47.186;9.778;2022-07-17T01:27:36;17.90;99.90
19552;DHT22;9921;47.186;9.778;2022-07-17T01:30:04;18.00;99.90
19552;DHT22;9921;47.186;9.778;2022-07-17T01:32:32;18.00;99.90
19552;DHT22;9921;47.186;9.778;2022-07-17T01:35:00;18.10;99.90
19552;DHT22;9921;47.186;9.778;2022-07-17T01:37:27;18.10;99.90
19552;DHT22;9921;47.186;9.778;2022-07-17T01:39:56;18.10;99.90
19552;DHT22;9921;47.186;9.778;2022-07-17T01:42:24;18.20;99.90
19552;DHT22;9921;47.186;9.778;2022-07-17T01:44:51;17.80;99.90
19552;DHT22;9921;47.186;9.778;2022-07-17T01:47:19;17.30;99.90
19552;DHT22;9921;47.186;9.778;2022-07-17T01:49:47;17.20;99.90
19552;DHT22;9921;47.186;9.778;2022-07-17T01:52:14;17.30;99.90
19552;DHT22;9921;47.186;9.778;2022-07-17T01:54:41;17.40;99.90
19552;DHT22;9921;47.186;9.778;2022-07-17T01:57:11;17.50;99.90
19552;DHT22;9921;47.186;9.778;2022-07-17T01:59:38;17.60;99.90
19552;DHT22;9921;47.186;9.778;2022-07-17T02:02:06;17.70;99.90
19552;DHT22;9921;47.186;9.778;2022-07-17T02:04:35;17.70;99.90
19552;DHT22;9921;47.186;9.778;2022-07-17T02:07:03;17.70;99.90
19552;DHT22;9921;47.186;9.778;2022-07-17T02:09:30;17.80;99.90
19552;DHT22;9921;47.186;9.778;2022-07-17T02:11:57;17.80;99.90
19552;DHT22;9921;47.186;9.778;2022-07-17T02:14:25;17.80;99.90
19552;DHT22;9921;47.186;9.778;2022-07-17T02:16:52;17.80;99.90
19552;DHT22;9921;47.186;9.778;2022-07-17T02:19:19;17.70;99.90
19552;DHT22;9921;47.186;9.778;2022-07-17T02:21:46;17.70;99.90
19552;DHT22;9921;47.186;9.778;2022-07-17T02:24:13;17.60;99.90
19552;DHT22;9921;47.186;9.778;2022-07-17T02:26:40;17.50;99.90
19552;DHT22;9921;47.186;9.778;2022-07-17T02:29:07;17.50;99.90
19552;DHT22;9921;47.186;9.778;2022-07-17T02:31:35;17.50;99.90
19552;DHT22;9921;47.186;9.778;2022-07-17T02:34:02;17.40;99.90
19552;DHT22;9921;47.186;9.778;2022-07-17T02:36:29;17.40;99.90
19552;DHT22;9921;47.186;9.778;2022-07-17T02:38:56;17.50;99.90
19552;DHT22;9921;47.186;9.778;2022-07-17T02:41:24;17.50;99.90
19552;DHT22;9921;47.186;9.778;2022-07-17T02:43:51;17.50;99.90
19552;DHT22;9921;47.186;9.778;2022-07-17T02:46:18;17.30;99.90
19552;DHT22;9921;47.186;9.778;2022-07-17T02:48:46;17.40;99.90
19552;DHT22;9921;47.186;9.778;2022-07-17T02:51:13;17.40;99.90
19552;DHT22;9921;47.186;9.778;2022-07-17T02:53:40;17.40;99.90
19552;DHT22;9921;47.186;9.778;2022-07-17T02:56:07;17.20;99.90
19552;DHT22;9921;47.186;9.778;2022-07-17T02:58:34;17.20;99.90
19552;DHT22;9921;47.186;9.778;2022-07-17T03:01:01;17.20;99.90
19552;DHT22;9921;47.186;9.778;2022-07-17T03:03:28;17.20;99.90
19552;DHT22;9921;47.186;9.778;2022-07-17T03:05:56;17.10;99.90
19552;DHT22;9921;47.186;9.778;2022-07-17T03:08:23;17.10;99.90
19552;DHT22;9921;47.186;9.778;2022-07-17T03:10:50;17.00;99.90
19552;DHT22;9921;47.186;9.778;2022-07-17T03:13:17;17.10;99.90
19552;DHT22;9921;47.186;9.778;2022-07-17T03:15:43;17.00;99.90
19552;DHT22;9921;47.186;9.778;2022-07-17T03:18:10;17.00;99.90
19552;DHT22;9921;47.186;9.778;2022-07-17T03:20:37;16.90;99.90
19552;DHT22;9921;47.186;9.778;2022-07-17T03:23:05;16.90;99.90
19552;DHT22;9921;47.186;9.778;2022-07-17T03:25:32;16.90;99.90
19552;DHT22;9921;47.186;9.778;2022-07-17T03:27:59;16.90;99.90
19552;DHT22;9921;47.186;9.778;2022-07-17T03:30:26;17.00;99.90
19552;DHT22;9921;47.186;9.778;2022-07-17T03:32:53;17.00;99.90
19552;DHT22;9921;47.186;9.778;2022-07-17T03:35:20;16.90;99.90
19552;DHT22;9921;47.186;9.778;2022-07-17T03:37:47;16.80;99.90
19552;DHT22;9921;47.186;9.778;2022-07-17T03:40:15;16.70;99.90
19552;DHT22;9921;47.186;9.778;2022-07-17T03:42:42;16.70;99.90
19552;DHT22;9921;47.186;9.778;2022-07-17T03:45:09;16.70;99.90
19552;DHT22;9921;47.186;9.778;2022-07-17T03:47:36;16.70;99.90
19552;DHT22;9921;47.186;9.778;2022-07-17T03:50:04;16.60;99.90
19552;DHT22;9921;47.186;9.778;2022-07-17T03:52:31;16.60;99.90
19552;DHT22;9921;47.186;9.778;2022-07-17T03:54:58;16.60;99.90
19552;DHT22;9921;47.186;9.778;2022-07-17T03:57:26;16.70;99.90
19552;DHT22;9921;47.186;9.778;2022-07-17T03:59:53;16.70;99.90
19552;DHT22;9921;47.186;9.778;2022-07-17T04:02:20;16.70;99.90
19552;DHT22;9921;47.186;9.778;2022-07-17T04:04:47;16.80;99.90
19552;DHT22;9921;47.186;9.778;2022-07-17T04:07:14;16.80;99.90
19552;DHT22;9921;47.186;9.778;2022-07-17T04:09:54;16.80;99.90
19552;DHT22;9921;47.186;9.778;2022-07-17T04:12:22;16.80;99.90
19552;DHT22;9921;47.186;9.778;2022-07-17T04:14:50;16.90;99.90
19552;DHT22;9921;47.186;9.778;2022-07-17T04:17:17;16.70;99.90
19552;DHT22;9921;47.186;9.778;2022-07-17T04:19:44;16.20;99.90
19552;DHT22;9921;47.186;9.778;2022-07-17T04:22:11;16.00;99.90
19552;DHT22;9921;47.186;9.778;2022-07-17T04:24:38;16.00;99.90
19552;DHT22;9921;47.186;9.778;2022-07-17T04:27:05;16.10;99.90
19552;DHT22;9921;47.186;9.778;2022-07-17T04:29:32;16.20;99.90
19552;DHT22;9921;47.186;9.778;2022-07-17T04:32:00;16.20;99.90
19552;DHT22;9921;47.186;9.778;2022-07-17T04:34:28;16.40;99.90
19552;DHT22;9921;47.186;9.778;2022-07-17T04:36:55;16.40;99.90
19552;DHT22;9921;47.186;9.778;2022-07-17T04:39:22;16.40;99.90
19552;DHT22;9921;47.186;9.778;2022-07-17T04:41:49;16.50;99.90
19552;DHT22;9921;47.186;9.778;2022-07-17T04:44:16;16.50;99.90
19552;DHT22;9921;47.186;9.778;2022-07-17T04:46:44;16.60;99.90
19552;DHT22;9921;47.186;9.778;2022-07-17T04:49:12;16.60;99.90
19552;DHT22;9921;47.186;9.778;2022-07-17T04:51:39;16.60;99.90
19552;DHT22;9921;47.186;9.778;2022-07-17T04:54:06;16.60;99.90
19552;DHT22;9921;47.186;9.778;2022-07-17T04:56:33;16.60;99.90
19552;DHT22;9921;47.186;9.778;2022-07-17T04:59:00;16.50;99.90
19552;DHT22;9921;47.186;9.778;2022-07-17T05:01:27;16.50;99.90
19552;DHT22;9921;47.186;9.778;2022-07-17T05:03:54;16.40;99.90
19552;DHT22;9921;47.186;9.778;2022-07-17T05:06:23;16.50;99.90
19552;DHT22;9921;47.186;9.778;2022-07-17T05:08:49;16.50;99.90
19552;DHT22;9921;47.186;9.778;2022-07-17T05:11:16;16.50;99.90
19552;DHT22;9921;47.186;9.778;2022-07-17T05:13:43;16.50;99.90
19552;DHT22;9921;47.186;9.778;2022-07-17T05:16:10;16.50;99.90
19552;DHT22;9921;47.186;9.778;2022-07-17T05:18:37;16.40;99.90
19552;DHT22;9921;47.186;9.778;2022-07-17T05:21:04;16.50;99.90
19552;DHT22;9921;47.186;9.778;2022-07-17T05:23:32;16.50;99.90
19552;DHT22;9921;47.186;9.778;2022-07-17T05:25:59;16.40;99.90
19552;DHT22;9921;47.186;9.778;2022-07-17T05:28:26;16.10;99.90
19552;DHT22;9921;47.186;9.778;2022-07-17T05:30:53;16.00;99.90
19552;DHT22;9921;47.186;9.778;2022-07-17T05:33:20;16.00;99.90
19552;DHT22;9921;47.186;9.778;2022-07-17T05:35:47;16.10;99.90
19552;DHT22;9921;47.186;9.778;2022-07-17T05:38:14;16.20;99.90
19552;DHT22;9921;47.186;9.778;2022-07-17T05:40:43;16.30;99.90
19552;DHT22;9921;47.186;9.778;2022-07-17T05:43:09;16.40;99.90
19552;DHT22;9921;47.186;9.778;2022-07-17T05:45:37;16.20;99.90
19552;DHT22;9921;47.186;9.778;2022-07-17T05:48:05;16.00;99.90
19552;DHT22;9921;47.186;9.778;2022-07-17T05:50:32;15.90;99.90
19552;DHT22;9921;47.186;9.778;2022-07-17T05:53:00;16.00;99.90
19552;DHT22;9921;47.186;9.778;2022-07-17T05:55:27;16.20;99.90
19552;DHT22;9921;47.186;9.778;2022-07-17T05:57:55;16.40;99.90
19552;DHT22;9921;47.186;9.778;2022-07-17T06:00:22;16.60;99.90
19552;DHT22;9921;47.186;9.778;2022-07-17T06:02:50;16.80;99.90
19552;DHT22;9921;47.186;9.778;2022-07-17T06:05:16;16.90;99.90
19552;DHT22;9921;47.186;9.778;2022-07-17T06:07:43;17.00;99.90
19552;DHT22;9921;47.186;9.778;2022-07-17T06:10:11;17.10;99.90
19552;DHT22;9921;47.186;9.778;2022-07-17T06:12:40;17.10;99.90
19552;DHT22;9921;47.186;9.778;2022-07-17T06:15:09;17.20;99.90
19552;DHT22;9921;47.186;9.778;2022-07-17T06:17:36;17.30;99.90
19552;DHT22;9921;47.186;9.778;2022-07-17T06:20:04;17.40;99.90
19552;DHT22;9921;47.186;9.778;2022-07-17T06:22:31;17.50;99.90
19552;DHT22;9921;47.186;9.778;2022-07-17T06:24:58;17.70;99.90
19552;DHT22;9921;47.186;9.778;2022-07-17T06:27:25;17.80;99.90
19552;DHT22;9921;47.186;9.778;2022-07-17T06:29:52;17.90;99.90
19552;DHT22;9921;47.186;9.778;2022-07-17T06:32:20;18.00;99.90
19552;DHT22;9921;47.186;9.778;2022-07-17T06:34:47;18.10;99.90
19552;DHT22;9921;47.186;9.778;2022-07-17T06:37:14;18.20;99.90
19552;DHT22;9921;47.186;9.778;2022-07-17T06:39:41;18.10;99.90
19552;DHT22;9921;47.186;9.778;2022-07-17T06:42:08;18.20;99.90
19552;DHT22;9921;47.186;9.778;2022-07-17T06:44:35;18.30;99.90
19552;DHT22;9921;47.186;9.778;2022-07-17T06:47:02;18.40;99.90
19552;DHT22;9921;47.186;9.778;2022-07-17T06:49:31;18.40;99.90
19552;DHT22;9921;47.186;9.778;2022-07-17T06:51:58;18.60;99.90
19552;DHT22;9921;47.186;9.778;2022-07-17T06:54:25;18.70;99.90
19552;DHT22;9921;47.186;9.778;2022-07-17T06:56:52;18.80;99.90
19552;DHT22;9921;47.186;9.778;2022-07-17T06:59:19;18.80;99.90
19552;DHT22;9921;47.186;9.778;2022-07-17T07:01:46;19.10;99.90
19552;DHT22;9921;47.186;9.778;2022-07-17T07:04:13;19.20;99.90
19552;DHT22;9921;47.186;9.778;2022-07-17T07:06:42;19.20;99.90
19552;DHT22;9921;47.186;9.778;2022-07-17T07:09:09;19.20;99.90
19552;DHT22;9921;47.186;9.778;2022-07-17T07:11:37;19.20;99.90
19552;DHT22;9921;47.186;9.778;2022-07-17T07:14:04;19.30;99.90
19552;DHT22;9921;47.186;9.778;2022-07-17T07:16:31;19.40;99.90
19552;DHT22;9921;47.186;9.778;2022-07-17T07:18:58;19.60;99.90
19552;DHT22;9921;47.186;9.778;2022-07-17T07:21:25;19.60;99.90
19552;DHT22;9921;47.186;9.778;2022-07-17T07:23:54;19.80;99.90
19552;DHT22;9921;47.186;9.778;2022-07-17T07:26:22;19.90;99.90
19552;DHT22;9921;47.186;9.778;2022-07-17T07:28:49;20.00;99.90
19552;DHT22;9921;47.186;9.778;2022-07-17T07:31:16;20.00;99.90
19552;DHT22;9921;47.186;9.778;2022-07-17T07:33:43;20.20;99.90
19552;DHT22;9921;47.186;9.778;2022-07-17T07:36:11;20.20;99.90
19552;DHT22;9921;47.186;9.778;2022-07-17T07:38:38;20.40;99.90
19552;DHT22;9921;47.186;9.778;2022-07-17T07:41:06;20.50;99.90
19552;DHT22;9921;47.186;9.778;2022-07-17T07:43:33;20.60;99.90
19552;DHT22;9921;47.186;9.778;2022-07-17T07:46:00;20.70;99.90
19552;DHT22;9921;47.186;9.778;2022-07-17T07:48:27;20.80;99.90
19552;DHT22;9921;47.186;9.778;2022-07-17T07:50:54;20.80;99.90
19552;DHT22;9921;47.186;9.778;2022-07-17T07:53:21;20.90;99.90
19552;DHT22;9921;47.186;9.778;2022-07-17T07:55:48;21.00;99.90
19552;DHT22;9921;47.186;9.778;2022-07-17T07:58:16;21.00;99.90
19552;DHT22;9921;47.186;9.778;2022-07-17T08:00:44;21.10;99.90
19552;DHT22;9921;47.186;9.778;2022-07-17T08:03:11;21.40;99.90
19552;DHT22;9921;47.186;9.778;2022-07-17T08:05:38;21.50;99.90
19552;DHT22;9921;47.186;9.778;2022-07-17T08:08:06;21.60;99.90
19552;DHT22;9921;47.186;9.778;2022-07-17T08:10:33;21.60;99.90
19552;DHT22;9921;47.186;9.778;2022-07-17T08:13:00;21.70;99.90
19552;DHT22;9921;47.186;9.778;2022-07-17T08:15:29;21.70;99.90
19552;DHT22;9921;47.186;9.778;2022-07-17T08:17:56;21.80;99.90
19552;DHT22;9921;47.186;9.778;2022-07-17T08:20:23;21.80;99.90
19552;DHT22;9921;47.186;9.778;2022-07-17T08:22:50;21.90;99.90
19552;DHT22;9921;47.186;9.778;2022-07-17T08:25:17;22.00;99.90
19552;DHT22;9921;47.186;9.778;2022-07-17T08:27:44;22.10;99.90
19552;DHT22;9921;47.186;9.778;2022-07-17T08:30:13;22.20;99.90
19552;DHT22;9921;47.186;9.778;2022-07-17T08:32:42;22.30;99.90
19552;DHT22;9921;47.186;9.778;2022-07-17T08:35:11;22.30;99.90
19552;DHT22;9921;47.186;9.778;2022-07-17T08:37:45;22.40;99.90
19552;DHT22;9921;47.186;9.778;2022-07-17T08:40:16;22.50;99.90
19552;DHT22;9921;47.186;9.778;2022-07-17T08:42:44;22.60;99.90
19552;DHT22;9921;47.186;9.778;2022-07-17T08:45:11;22.60;99.90
19552;DHT22;9921;47.186;9.778;2022-07-17T08:47:39;22.70;99.90
19552;DHT22;9921;47.186;9.778;2022-07-17T08:50:09;22.70;99.90
19552;DHT22;9921;47.186;9.778;2022-07-17T08:52:37;22.80;99.90
19552;DHT22;9921;47.186;9.778;2022-07-17T08:55:08;22.90;99.90
19552;DHT22;9921;47.186;9.778;2022-07-17T08:57:37;23.00;99.90
19552;DHT22;9921;47.186;9.778;2022-07-17T09:00:06;23.00;99.90
19552;DHT22;9921;47.186;9.778;2022-07-17T09:02:33;23.10;99.90
19552;DHT22;9921;47.186;9.778;2022-07-17T09:05:01;23.20;99.90
19552;DHT22;9921;47.186;9.778;2022-07-17T09:07:30;23.30;99.90
19552;DHT22;9921;47.186;9.778;2022-07-17T09:09:57;23.40;99.90
19552;DHT22;9921;47.186;9.778;2022-07-17T09:12:25;23.40;99.90
19552;DHT22;9921;47.186;9.778;2022-07-17T09:14:53;23.60;99.90
19552;DHT22;9921;47.186;9.778;2022-07-17T09:17:20;23.60;99.90
19552;DHT22;9921;47.186;9.778;2022-07-17T09:19:48;23.70;99.90
19552;DHT22;9921;47.186;9.778;2022-07-17T09:22:16;23.80;99.90
19552;DHT22;9921;47.186;9.778;2022-07-17T09:24:47;23.80;99.90
19552;DHT22;9921;47.186;9.778;2022-07-17T09:27:17;23.90;99.90
19552;DHT22;9921;47.186;9.778;2022-07-17T09:29:55;24.00;99.90
19552;DHT22;9921;47.186;9.778;2022-07-17T09:32:24;24.10;99.90
19552;DHT22;9921;47.186;9.778;2022-07-17T09:34:53;24.20;99.90
19552;DHT22;9921;47.186;9.778;2022-07-17T09:37:22;24.20;99.90
19552;DHT22;9921;47.186;9.778;2022-07-17T09:39:51;24.30;99.90
19552;DHT22;9921;47.186;9.778;2022-07-17T09:42:24;24.40;99.90
19552;DHT22;9921;47.186;9.778;2022-07-17T09:44:56;24.50;99.90
19552;DHT22;9921;47.186;9.778;2022-07-17T09:47:23;24.60;99.90
19552;DHT22;9921;47.186;9.778;2022-07-17T09:49:51;24.60;99.90
19552;DHT22;9921;47.186;9.778;2022-07-17T09:52:19;24.70;99.90
19552;DHT22;9921;47.186;9.778;2022-07-17T09:54:47;24.70;99.90
19552;DHT22;9921;47.186;9.778;2022-07-17T09:57:16;24.80;99.90
19552;DHT22;9921;47.186;9.778;2022-07-17T09:59:44;24.80;99.90
19552;DHT22;9921;47.186;9.778;2022-07-17T10:02:13;25.00;99.90
19552;DHT22;9921;47.186;9.778;2022-07-17T10:04:41;25.00;99.90
19552;DHT22;9921;47.186;9.778;2022-07-17T10:07:09;25.10;99.90
19552;DHT22;9921;47.186;9.778;2022-07-17T10:09:36;25.20;99.90
19552;DHT22;9921;47.186;9.778;2022-07-17T10:12:05;25.30;99.90
19552;DHT22;9921;47.186;9.778;2022-07-17T10:14:34;25.30;99.90
19552;DHT22;9921;47.186;9.778;2022-07-17T10:17:10;25.40;99.90
19552;DHT22;9921;47.186;9.778;2022-07-17T10:19:46;25.60;99.90
19552;DHT22;9921;47.186;9.778;2022-07-17T10:22:14;25.60;98.40
19552;DHT22;9921;47.186;9.778;2022-07-17T10:24:46;25.70;99.80
19552;DHT22;9921;47.186;9.778;2022-07-17T10:27:19;25.70;99.60
19552;DHT22;9921;47.186;9.778;2022-07-17T10:29:47;25.80;99.90
19552;DHT22;9921;47.186;9.778;2022-07-17T10:32:24;25.90;99.40
19552;DHT22;9921;47.186;9.778;2022-07-17T10:34:54;26.00;99.90
19552;DHT22;9921;47.186;9.778;2022-07-17T10:37:23;26.10;99.80
19552;DHT22;9921;47.186;9.778;2022-07-17T10:39:57;26.20;99.40
19552;DHT22;9921;47.186;9.778;2022-07-17T10:42:42;26.30;99.90
19552;DHT22;9921;47.186;9.778;2022-07-17T10:45:12;26.30;99.50
19552;DHT22;9921;47.186;9.778;2022-07-17T10:47:51;26.40;99.60
19552;DHT22;9921;47.186;9.778;2022-07-17T10:50:21;26.40;98.40
19552;DHT22;9921;47.186;9.778;2022-07-17T10:53:04;26.40;98.60
19552;DHT22;9921;47.186;9.778;2022-07-17T10:55:31;26.50;99.90
19552;DHT22;9921;47.186;9.778;2022-07-17T10:57:58;26.60;99.30
19552;DHT22;9921;47.186;9.778;2022-07-17T11:00:27;26.60;99.50
19552;DHT22;9921;47.186;9.778;2022-07-17T11:02:54;26.70;98.60
19552;DHT22;9921;47.186;9.778;2022-07-17T11:05:21;26.70;99.40
19552;DHT22;9921;47.186;9.778;2022-07-17T11:07:52;26.80;99.20
19552;DHT22;9921;47.186;9.778;2022-07-17T11:10:20;26.90;99.10
19552;DHT22;9921;47.186;9.778;2022-07-17T11:12:47;27.00;99.00
19552;DHT22;9921;47.186;9.778;2022-07-17T11:15:15;27.00;99.20
19552;DHT22;9921;47.186;9.778;2022-07-17T11:17:48;27.10;98.70
19552;DHT22;9921;47.186;9.778;2022-07-17T11:20:16;27.20;99.70
19552;DHT22;9921;47.186;9.778;2022-07-17T11:22:44;27.20;98.60
19552;DHT22;9921;47.186;9.778;2022-07-17T11:25:11;27.30;98.90
19552;DHT22;9921;47.186;9.778;2022-07-17T11:27:38;27.30;98.40
19552;DHT22;9921;47.186;9.778;2022-07-17T11:30:12;27.30;98.80
19552;DHT22;9921;47.186;9.778;2022-07-17T11:32:42;27.50;99.90
19552;DHT22;9921;47.186;9.778;2022-07-17T11:35:18;27.50;99.20
19552;DHT22;9921;47.186;9.778;2022-07-17T11:37:45;27.50;98.30
19552;DHT22;9921;47.186;9.778;2022-07-17T11:40:12;27.60;98.30
19552;DHT22;9921;47.186;9.778;2022-07-17T11:42:39;27.60;98.00
19552;DHT22;9921;47.186;9.778;2022-07-17T11:45:07;27.70;99.60
19552;DHT22;9921;47.186;9.778;2022-07-17T11:47:35;27.80;99.90
19552;DHT22;9921;47.186;9.778;2022-07-17T11:50:07;27.90;99.00
19552;DHT22;9921;47.186;9.778;2022-07-17T11:52:45;28.00;99.70
19552;DHT22;9921;47.186;9.778;2022-07-17T11:55:14;28.00;97.70
19552;DHT22;9921;47.186;9.778;2022-07-17T11:57:43;28.10;98.90
19552;DHT22;9921;47.186;9.778;2022-07-17T12:00:13;28.20;98.90
19552;DHT22;9921;47.186;9.778;2022-07-17T12:02:40;28.30;97.60
19552;DHT22;9921;47.186;9.778;2022-07-17T12:05:07;28.30;97.60
19552;DHT22;9921;47.186;9.778;2022-07-17T12:07:44;28.50;97.80
19552;DHT22;9921;47.186;9.778;2022-07-17T12:10:16;28.60;99.10
19552;DHT22;9921;47.186;9.778;2022-07-17T12:12:56;28.80;98.20
19552;DHT22;9921;47.186;9.778;2022-07-17T12:15:34;28.90;99.20
19552;DHT22;9921;47.186;9.778;2022-07-17T12:18:02;28.90;98.30
19552;DHT22;9921;47.186;9.778;2022-07-17T12:20:41;29.00;97.60
19552;DHT22;9921;47.186;9.778;2022-07-17T12:23:25;28.90;96.20
19552;DHT22;9921;47.186;9.778;2022-07-17T12:26:03;28.90;96.50
19552;DHT22;9921;47.186;9.778;2022-07-17T12:28:30;28.90;96.80
19552;DHT22;9921;47.186;9.778;2022-07-17T12:30:57;29.00;95.50
19552;DHT22;9921;47.186;9.778;2022-07-17T12:33:24;29.10;95.90
19552;DHT22;9921;47.186;9.778;2022-07-17T12:35:51;29.10;95.50
19552;DHT22;9921;47.186;9.778;2022-07-17T12:38:19;29.10;96.10
19552;DHT22;9921;47.186;9.778;2022-07-17T12:40:46;29.10;94.20
19552;DHT22;9921;47.186;9.778;2022-07-17T12:43:13;29.10;96.20
19552;DHT22;9921;47.186;9.778;2022-07-17T12:45:40;29.30;95.80
19552;DHT22;9921;47.186;9.778;2022-07-17T12:48:07;29.30;96.10
19552;DHT22;9921;47.186;9.778;2022-07-17T12:50:34;29.30;95.20
19552;DHT22;9921;47.186;9.778;2022-07-17T12:53:01;29.40;95.50
19552;DHT22;9921;47.186;9.778;2022-07-17T12:55:29;29.50;95.50
19552;DHT22;9921;47.186;9.778;2022-07-17T12:57:56;29.50;95.30
19552;DHT22;9921;47.186;9.778;2022-07-17T13:00:23;29.60;94.80
19552;DHT22;9921;47.186;9.778;2022-07-17T13:02:50;29.50;93.90
19552;DHT22;9921;47.186;9.778;2022-07-17T13:05:17;29.50;94.10
19552;DHT22;9921;47.186;9.778;2022-07-17T13:07:44;29.50;94.30
19552;DHT22;9921;47.186;9.778;2022-07-17T13:10:11;29.60;97.10
19552;DHT22;9921;47.186;9.778;2022-07-17T13:12:39;29.70;95.20
19552;DHT22;9921;47.186;9.778;2022-07-17T13:15:07;29.70;93.90
19552;DHT22;9921;47.186;9.778;2022-07-17T13:17:34;29.60;93.90
19552;DHT22;9921;47.186;9.778;2022-07-17T13:20:03;29.60;94.70
19552;DHT22;9921;47.186;9.778;2022-07-17T13:22:31;29.60;94.40
19552;DHT22;9921;47.186;9.778;2022-07-17T13:24:58;29.60;93.80
19552;DHT22;9921;47.186;9.778;2022-07-17T13:27:24;29.70;94.70
19552;DHT22;9921;47.186;9.778;2022-07-17T13:29:53;29.80;94.90
19552;DHT22;9921;47.186;9.778;2022-07-17T13:32:20;29.80;94.00
19552;DHT22;9921;47.186;9.778;2022-07-17T13:34:46;29.80;92.40
19552;DHT22;9921;47.186;9.778;2022-07-17T13:37:14;29.80;91.50
19552;DHT22;9921;47.186;9.778;2022-07-17T13:39:41;29.70;92.60
19552;DHT22;9921;47.186;9.778;2022-07-17T13:42:08;29.70;91.80
19552;DHT22;9921;47.186;9.778;2022-07-17T13:44:35;29.70;93.40
19552;DHT22;9921;47.186;9.778;2022-07-17T13:47:03;29.70;92.70
19552;DHT22;9921;47.186;9.778;2022-07-17T13:49:30;29.70;93.40
19552;DHT22;9921;47.186;9.778;2022-07-17T13:51:57;29.80;93.10
19552;DHT22;9921;47.186;9.778;2022-07-17T13:54:24;29.90;92.90
19552;DHT22;9921;47.186;9.778;2022-07-17T13:56:51;29.90;92.20
19552;DHT22;9921;47.186;9.778;2022-07-17T13:59:18;29.90;92.30
19552;DHT22;9921;47.186;9.778;2022-07-17T14:01:45;29.90;92.60
19552;DHT22;9921;47.186;9.778;2022-07-17T14:04:13;29.90;92.50
19552;DHT22;9921;47.186;9.778;2022-07-17T14:06:40;30.00;91.90
19552;DHT22;9921;47.186;9.778;2022-07-17T14:09:07;30.00;93.20
19552;DHT22;9921;47.186;9.778;2022-07-17T14:11:35;30.00;92.70
19552;DHT22;9921;47.186;9.778;2022-07-17T14:14:02;29.90;92.10
19552;DHT22;9921;47.186;9.778;2022-07-17T14:16:29;29.80;91.20
19552;DHT22;9921;47.186;9.778;2022-07-17T14:18:56;29.70;92.60
19552;DHT22;9921;47.186;9.778;2022-07-17T14:21:28;29.70;92.50
19552;DHT22;9921;47.186;9.778;2022-07-17T14:23:55;29.70;92.10
19552;DHT22;9921;47.186;9.778;2022-07-17T14:26:22;29.70;92.10
19552;DHT22;9921;47.186;9.778;2022-07-17T14:28:49;29.70;92.70
19552;DHT22;9921;47.186;9.778;2022-07-17T14:31:16;29.70;92.50
19552;DHT22;9921;47.186;9.778;2022-07-17T14:33:43;29.60;92.10
19552;DHT22;9921;47.186;9.778;2022-07-17T14:36:10;29.70;92.00
19552;DHT22;9921;47.186;9.778;2022-07-17T14:38:39;29.70;91.60
19552;DHT22;9921;47.186;9.778;2022-07-17T14:41:06;29.60;91.50
19552;DHT22;9921;47.186;9.778;2022-07-17T14:43:33;29.60;93.20
19552;DHT22;9921;47.186;9.778;2022-07-17T14:46:00;29.60;93.60
19552;DHT22;9921;47.186;9.778;2022-07-17T14:48:27;29.60;93.50
19552;DHT22;9921;47.186;9.778;2022-07-17T14:50:53;29.60;92.10
19552;DHT22;9921;47.186;9.778;2022-07-17T14:53:20;29.60;92.40
19552;DHT22;9921;47.186;9.778;2022-07-17T14:55:49;29.50;92.50
19552;DHT22;9921;47.186;9.778;2022-07-17T14:58:15;29.50;92.20
19552;DHT22;9921;47.186;9.778;2022-07-17T15:00:42;29.40;92.50
19552;DHT22;9921;47.186;9.778;2022-07-17T15:03:10;29.40;92.40
19552;DHT22;9921;47.186;9.778;2022-07-17T15:05:37;29.40;91.40
19552;DHT22;9921;47.186;9.778;2022-07-17T15:08:04;29.40;92.40
19552;DHT22;9921;47.186;9.778;2022-07-17T15:10:31;29.40;93.10
19552;DHT22;9921;47.186;9.778;2022-07-17T15:13:00;29.40;92.10
19552;DHT22;9921;47.186;9.778;2022-07-17T15:15:27;29.40;92.50
19552;DHT22;9921;47.186;9.778;2022-07-17T15:17:54;29.30;91.60
19552;DHT22;9921;47.186;9.778;2022-07-17T15:20:21;29.20;91.40
19552;DHT22;9921;47.186;9.778;2022-07-17T15:22:49;29.20;92.10
19552;DHT22;9921;47.186;9.778;2022-07-17T15:25:16;29.10;91.70
19552;DHT22;9921;47.186;9.778;2022-07-17T15:27:43;29.10;92.20
19552;DHT22;9921;47.186;9.778;2022-07-17T15:30:11;29.00;92.00
19552;DHT22;9921;47.186;9.778;2022-07-17T15:32:38;29.00;92.00
19552;DHT22;9921;47.186;9.778;2022-07-17T15:35:06;29.00;91.20
19552;DHT22;9921;47.186;9.778;2022-07-17T15:37:33;28.90;92.00
19552;DHT22;9921;47.186;9.778;2022-07-17T15:40:00;28.80;92.00
19552;DHT22;9921;47.186;9.778;2022-07-17T15:42:27;28.90;92.10
19552;DHT22;9921;47.186;9.778;2022-07-17T15:44:55;28.90;93.10
19552;DHT22;9921;47.186;9.778;2022-07-17T15:47:25;28.80;90.70
19552;DHT22;9921;47.186;9.778;2022-07-17T15:49:51;28.70;91.30